createdAt,value
2022-10-14T00:01:26.937Z,11.45
2022-10-14T00:03:55.562Z,11.42
2022-10-14T00:06:26.090Z,11.42
2022-10-14T00:08:54.821Z,11.43
2022-10-14T00:11:25.618Z,11.43
2022-10-14T00:13:57.456Z,11.41
2022-10-14T00:16:27.775Z,11.43
2022-10-14T00:18:55.971Z,11.43
2022-10-14T00:21:24.039Z,11.42
2022-10-14T00:23:52.076Z,11.42
2022-10-14T00:26:22.431Z,11.41
2022-10-14T00:28:51.483Z,11.41
2022-10-14T00:31:21.289Z,11.35
2022-10-14T00:33:49.810Z,11.42
2022-10-14T00:36:20.074Z,11.44
2022-10-14T00:38:48.829Z,11.42
2022-10-14T00:41:20.519Z,11.45
2022-10-14T00:43:58.095Z,11.43
2022-10-14T00:46:29.264Z,11.40
2022-10-14T00:48:58.686Z,11.42
2022-10-14T00:51:27.165Z,11.41
2022-10-14T00:53:55.257Z,11.40
2022-10-14T00:56:28.234Z,11.42
2022-10-14T00:58:57.032Z,11.42
2022-10-14T01:01:25.120Z,11.41
2022-10-14T01:03:54.429Z,11.39
2022-10-14T01:06:37.249Z,11.38
2022-10-14T01:09:14.449Z,11.37
2022-10-14T01:12:09.856Z,11.39
2022-10-14T01:14:47.273Z,11.39
2022-10-14T01:17:23.741Z,11.39
2022-10-14T01:20:31.354Z,11.37
2022-10-14T01:23:12.688Z,11.36
2022-10-14T01:25:52.887Z,11.38
2022-10-14T01:28:30.318Z,11.40
2022-10-14T01:31:04.417Z,11.35
2022-10-14T01:33:38.670Z,11.37
2022-10-14T01:36:12.674Z,11.37
2022-10-14T01:38:45.977Z,11.36
2022-10-14T01:41:19.942Z,11.38
2022-10-14T01:43:51.256Z,11.38
2022-10-14T01:46:24.125Z,11.39
2022-10-14T01:48:56.386Z,11.40
2022-10-14T01:51:31.782Z,11.39
2022-10-14T01:54:04.045Z,11.38
2022-10-14T01:56:38.145Z,11.39
2022-10-14T01:59:11.702Z,11.39
2022-10-14T02:01:41.417Z,11.37
2022-10-14T02:04:16.314Z,11.32
2022-10-14T02:06:50.562Z,11.36
2022-10-14T02:09:26.343Z,11.36
2022-10-14T02:12:05.718Z,11.34
2022-10-14T02:14:40.946Z,11.34
2022-10-14T02:17:15.903Z,11.34
2022-10-14T02:19:51.291Z,11.34
2022-10-14T02:22:26.354Z,11.32
2022-10-14T02:24:57.193Z,11.31
2022-10-14T02:27:27.346Z,11.30
2022-10-14T02:29:57.395Z,11.30
2022-10-14T02:32:28.653Z,11.30
2022-10-14T02:34:59.871Z,11.30
2022-10-14T02:37:28.889Z,11.31
2022-10-14T02:40:00.279Z,11.33
2022-10-14T02:42:29.092Z,11.32
2022-10-14T02:45:00.129Z,11.30
2022-10-14T02:47:29.636Z,11.30
2022-10-14T02:49:57.557Z,11.28
2022-10-14T02:52:25.970Z,11.28
2022-10-14T02:54:53.929Z,11.26
2022-10-14T02:57:21.931Z,11.25
2022-10-14T02:59:49.900Z,11.26
2022-10-14T03:02:17.812Z,11.26
2022-10-14T03:04:47.135Z,11.26
2022-10-14T03:07:15.064Z,11.26
2022-10-14T03:09:43.055Z,11.25
2022-10-14T03:12:11.029Z,11.27
2022-10-14T03:14:39.022Z,11.27
2022-10-14T03:17:06.968Z,11.29
2022-10-14T03:19:35.043Z,11.27
2022-10-14T03:22:04.424Z,11.27
2022-10-14T03:24:32.338Z,11.25
2022-10-14T03:27:00.340Z,11.27
2022-10-14T03:29:28.274Z,11.27
2022-10-14T03:31:56.199Z,11.27
2022-10-14T03:34:24.149Z,11.26
2022-10-14T03:36:52.172Z,11.28
2022-10-14T03:39:21.640Z,11.28
2022-10-14T03:41:49.647Z,11.28
2022-10-14T03:44:17.714Z,11.30
2022-10-14T03:46:45.667Z,11.30
2022-10-14T03:49:14.268Z,11.28
2022-10-14T03:51:42.267Z,11.27
2022-10-14T03:54:10.253Z,11.27
2022-10-14T03:56:39.610Z,11.27
2022-10-14T03:59:08.604Z,11.28
2022-10-14T04:01:40.187Z,11.27
2022-10-14T04:04:08.183Z,11.24
2022-10-14T04:06:36.618Z,11.26
2022-10-14T04:09:04.753Z,11.25
2022-10-14T04:11:33.256Z,11.26
2022-10-14T04:14:03.716Z,11.23
2022-10-14T04:16:32.717Z,11.23
2022-10-14T04:19:00.785Z,11.23
2022-10-14T04:21:28.821Z,11.23
2022-10-14T04:23:56.806Z,11.23
2022-10-14T04:26:24.715Z,11.23
2022-10-14T04:28:52.744Z,11.20
2022-10-14T04:31:22.646Z,11.20
2022-10-14T04:33:50.590Z,11.20
2022-10-14T04:36:18.548Z,11.21
2022-10-14T04:38:46.477Z,11.17
2022-10-14T04:41:14.457Z,11.15
2022-10-14T04:43:42.402Z,11.13
2022-10-14T04:46:10.325Z,11.11
2022-10-14T04:48:39.633Z,11.10
2022-10-14T04:51:07.704Z,11.11
2022-10-14T04:53:35.678Z,11.11
2022-10-14T04:56:03.634Z,11.12
2022-10-14T04:58:31.639Z,11.13
2022-10-14T05:00:59.589Z,11.16
2022-10-14T05:03:27.581Z,11.17
2022-10-14T05:05:56.901Z,11.18
2022-10-14T05:08:24.810Z,11.19
2022-10-14T05:10:52.781Z,11.19
2022-10-14T05:13:20.766Z,11.19
2022-10-14T05:15:48.914Z,11.24
2022-10-14T05:18:18.213Z,11.21
2022-10-14T05:20:46.757Z,11.19
2022-10-14T05:23:16.102Z,11.18
2022-10-14T05:25:44.055Z,11.17
2022-10-14T05:28:11.967Z,11.16
2022-10-14T05:30:39.918Z,11.16
2022-10-14T05:33:08.104Z,11.16
2022-10-14T05:35:57.626Z,11.18
2022-10-14T05:38:25.509Z,11.19
2022-10-14T05:40:54.678Z,11.18
2022-10-14T05:43:29.390Z,11.18
2022-10-14T05:45:59.969Z,11.19
2022-10-14T05:48:28.132Z,11.20
2022-10-14T05:50:56.122Z,11.19
2022-10-14T05:53:25.521Z,11.20
2022-10-14T05:55:53.552Z,11.19
2022-10-14T05:58:21.672Z,11.20
2022-10-14T06:00:49.658Z,11.20
2022-10-14T06:03:17.693Z,11.21
2022-10-14T06:05:46.397Z,11.21
2022-10-14T06:08:14.506Z,11.21
2022-10-14T06:10:43.857Z,11.23
2022-10-14T06:13:11.802Z,11.24
2022-10-14T06:15:39.951Z,11.24
2022-10-14T06:18:07.928Z,11.24
2022-10-14T06:20:36.420Z,11.25
2022-10-14T06:23:04.858Z,11.26
2022-10-14T06:25:32.903Z,11.26
2022-10-14T06:28:05.368Z,11.27
2022-10-14T06:30:33.526Z,11.27
2022-10-14T06:33:01.651Z,11.27
2022-10-14T06:35:29.630Z,11.28
2022-10-14T06:37:57.598Z,11.27
2022-10-14T06:40:25.826Z,11.27
2022-10-14T06:42:54.081Z,11.34
2022-10-14T06:45:23.417Z,11.32
2022-10-14T06:47:51.390Z,11.33
2022-10-14T06:50:19.437Z,11.31
2022-10-14T06:52:47.762Z,11.34
2022-10-14T06:55:16.512Z,11.37
2022-10-14T06:57:45.010Z,11.38
2022-10-14T07:00:13.661Z,11.36
2022-10-14T07:02:42.938Z,11.39
2022-10-14T07:05:11.133Z,11.38
2022-10-14T07:07:39.158Z,11.36
2022-10-14T07:10:07.956Z,11.35
2022-10-14T07:12:35.970Z,11.35
2022-10-14T07:15:04.895Z,11.36
2022-10-14T07:17:32.985Z,11.36
2022-10-14T07:20:02.380Z,11.34
2022-10-14T07:22:31.528Z,11.35
2022-10-14T07:25:00.965Z,11.37
2022-10-14T07:27:28.962Z,11.37
2022-10-14T07:29:56.940Z,11.39
2022-10-14T07:32:24.915Z,11.41
2022-10-14T07:34:53.022Z,11.36
2022-10-14T07:37:22.840Z,11.45
2022-10-14T07:39:51.015Z,11.49
2022-10-14T07:44:54.018Z,11.52
2022-10-14T07:47:22.825Z,11.53
2022-10-14T07:49:51.320Z,11.54
2022-10-14T07:52:20.120Z,11.54
2022-10-14T07:54:49.548Z,11.54
2022-10-14T07:57:17.758Z,11.55
2022-10-14T07:59:46.725Z,11.53
2022-10-14T08:02:14.722Z,11.54
2022-10-14T08:04:42.653Z,11.54
2022-10-14T08:07:10.578Z,11.56
2022-10-14T08:09:38.681Z,11.58
2022-10-14T08:12:08.559Z,11.59
2022-10-14T08:14:36.718Z,11.63
2022-10-14T08:17:04.713Z,11.65
2022-10-14T08:19:32.889Z,11.63
2022-10-14T08:22:00.806Z,11.62
2022-10-14T08:24:28.937Z,11.62
2022-10-14T08:27:00.573Z,11.58
2022-10-14T08:29:29.900Z,11.62
2022-10-14T08:31:57.874Z,11.62
2022-10-14T08:34:25.951Z,11.58
2022-10-14T08:36:53.924Z,11.57
2022-10-14T08:39:22.663Z,11.58
2022-10-14T08:42:32.745Z,11.62
2022-10-14T08:45:08.862Z,11.64
2022-10-14T08:47:38.773Z,11.67
2022-10-14T08:50:18.366Z,11.70
2022-10-14T08:52:51.656Z,11.74
2022-10-14T08:55:28.489Z,11.79
2022-10-14T08:58:02.055Z,11.85
2022-10-14T09:00:34.621Z,11.99
2022-10-14T09:03:06.891Z,12.12
2022-10-14T09:05:34.948Z,12.21
2022-10-14T09:08:03.734Z,12.26
2022-10-14T09:10:35.792Z,12.29
2022-10-14T09:13:11.756Z,12.33
2022-10-14T09:15:44.813Z,12.44
2022-10-14T09:18:22.502Z,12.48
2022-10-14T09:20:50.776Z,12.57
2022-10-14T09:23:21.120Z,12.76
2022-10-14T09:25:58.543Z,12.88
2022-10-14T09:28:34.708Z,12.94
2022-10-14T09:31:04.926Z,13.05
2022-10-14T09:33:38.191Z,13.17
2022-10-14T09:36:16.612Z,13.12
2022-10-14T09:38:46.101Z,12.94
2022-10-14T09:41:16.902Z,12.93
2022-10-14T09:44:21.252Z,12.82
2022-10-14T09:46:57.154Z,12.89
2022-10-14T09:49:39.033Z,12.85
2022-10-14T09:52:07.970Z,12.84
2022-10-14T09:54:36.329Z,12.90
2022-10-14T09:57:08.093Z,12.92
2022-10-14T09:59:53.775Z,13.09
2022-10-14T10:02:26.832Z,13.17
2022-10-14T10:04:57.972Z,13.33
2022-10-14T10:07:33.838Z,13.17
2022-10-14T10:10:05.037Z,13.30
2022-10-14T10:12:34.727Z,13.45
2022-10-14T10:15:06.785Z,13.42
2022-10-14T10:17:40.529Z,13.63
2022-10-14T10:20:19.271Z,13.60
2022-10-14T10:22:47.685Z,13.54
2022-10-14T10:25:27.989Z,13.38
2022-10-14T10:27:59.822Z,13.53
2022-10-14T10:30:29.520Z,13.69
2022-10-14T10:33:16.769Z,13.65
2022-10-14T10:36:02.233Z,13.76
2022-10-14T10:38:32.716Z,13.61
2022-10-14T10:41:17.348Z,13.61
2022-10-14T10:43:57.173Z,13.61
2022-10-14T10:46:51.509Z,13.68
2022-10-14T10:49:36.223Z,13.65
2022-10-14T10:52:16.201Z,13.75
2022-10-14T10:54:55.967Z,13.78
2022-10-14T10:57:43.951Z,13.72
2022-10-14T11:00:16.464Z,13.59
2022-10-14T11:03:03.080Z,13.64
2022-10-14T11:05:44.663Z,13.53
2022-10-14T11:09:09.459Z,13.42
2022-10-14T11:12:12.989Z,13.51
2022-10-14T11:14:57.030Z,13.45
2022-10-14T11:17:33.824Z,13.57
2022-10-14T11:20:18.604Z,13.49
2022-10-14T11:23:09.110Z,13.53
2022-10-14T11:25:49.254Z,13.47
2022-10-14T11:28:23.372Z,13.46
2022-10-14T11:30:58.944Z,13.49
2022-10-14T11:33:43.029Z,13.32
2022-10-14T11:36:24.710Z,13.25
2022-10-14T11:39:10.216Z,13.17
2022-10-14T11:41:53.898Z,13.12
2022-10-14T11:44:31.586Z,13.11
2022-10-14T11:47:05.746Z,13.05
2022-10-14T11:49:38.546Z,13.00
2022-10-14T11:52:12.052Z,13.07
2022-10-14T11:54:46.996Z,12.88
2022-10-14T11:57:23.962Z,12.98
2022-10-14T12:00:12.656Z,13.10
2022-10-14T12:02:48.678Z,13.22
2022-10-14T12:05:22.375Z,13.30
2022-10-14T12:08:01.572Z,13.33
2022-10-14T12:10:35.542Z,13.44
2022-10-14T12:13:07.931Z,13.49
2022-10-14T12:15:38.476Z,13.62
2022-10-14T12:18:07.570Z,13.60
2022-10-14T12:20:41.721Z,13.53
2022-10-14T12:23:13.807Z,13.62
2022-10-14T12:25:53.225Z,13.64
2022-10-14T12:28:22.170Z,13.63
2022-10-14T12:30:51.666Z,13.65
2022-10-14T12:33:22.874Z,13.67
2022-10-14T12:36:09.121Z,13.58
2022-10-14T12:38:37.430Z,13.57
2022-10-14T12:41:39.239Z,13.62
2022-10-14T12:44:18.750Z,13.64
2022-10-14T12:46:49.145Z,13.79
2022-10-14T12:49:19.952Z,14.02
2022-10-14T12:51:55.759Z,14.05
2022-10-14T12:54:25.641Z,14.09
2022-10-14T12:57:00.042Z,14.19
2022-10-14T12:59:31.261Z,14.25
2022-10-14T13:02:04.240Z,14.46
2022-10-14T13:04:36.087Z,15.26
2022-10-14T13:07:46.872Z,16.61
2022-10-14T13:10:50.557Z,17.30
2022-10-14T13:13:55.676Z,16.89
2022-10-14T13:16:57.183Z,16.45
2022-10-14T13:19:43.431Z,15.76
2022-10-14T13:22:42.110Z,15.32
2022-10-14T13:25:21.473Z,14.84
2022-10-14T13:28:13.895Z,14.52
2022-10-14T13:30:55.098Z,14.35
2022-10-14T13:33:32.631Z,14.19
2022-10-14T13:36:09.683Z,14.08
2022-10-14T13:38:39.698Z,13.98
2022-10-14T13:41:15.992Z,13.94
2022-10-14T13:43:44.662Z,13.77
2022-10-14T13:46:17.278Z,13.76
2022-10-14T13:48:48.345Z,13.72
2022-10-14T13:51:36.437Z,13.70
2022-10-14T13:54:15.385Z,13.61
2022-10-14T13:56:44.149Z,13.54
2022-10-14T13:59:43.174Z,13.47
2022-10-14T14:02:15.514Z,13.45
2022-10-14T14:04:51.613Z,13.44
2022-10-14T14:07:59.083Z,13.47
2022-10-14T14:10:13.143Z,13.51
2022-10-14T14:12:44.390Z,13.49
2022-10-14T14:15:20.910Z,13.48
2022-10-14T14:17:48.870Z,13.54
2022-10-14T14:20:21.265Z,13.62
2022-10-14T14:22:49.361Z,13.72
2022-10-14T14:26:01.200Z,13.73
2022-10-14T14:28:15.213Z,13.72
2022-10-14T14:30:54.577Z,13.69
2022-10-14T14:33:30.627Z,13.67
2022-10-14T14:36:02.485Z,13.68
2022-10-14T14:38:32.549Z,13.67
2022-10-14T14:41:05.950Z,13.63
2022-10-14T14:43:39.706Z,13.67
2022-10-14T14:46:18.356Z,13.63
2022-10-14T14:48:54.398Z,13.63
2022-10-14T14:51:24.701Z,13.60
2022-10-14T14:53:54.690Z,13.55
2022-10-14T14:56:27.766Z,13.49
2022-10-14T14:58:58.976Z,13.37
2022-10-14T15:01:28.843Z,13.17
2022-10-14T15:04:13.274Z,13.20
2022-10-14T15:06:51.215Z,13.19
2022-10-14T15:09:25.361Z,13.12
2022-10-14T15:11:55.789Z,13.08
2022-10-14T15:14:30.697Z,13.05
2022-10-14T15:16:58.900Z,12.97
2022-10-14T15:19:38.144Z,12.90
2022-10-14T15:22:23.991Z,12.79
2022-10-14T15:25:03.376Z,12.81
2022-10-14T15:27:50.385Z,12.77
2022-10-14T15:30:23.822Z,12.74
2022-10-14T15:32:54.308Z,12.69
2022-10-14T15:35:23.655Z,12.62
2022-10-14T15:37:54.009Z,12.62
2022-10-14T15:40:24.389Z,12.59
2022-10-14T15:42:52.451Z,12.58
2022-10-14T15:45:21.868Z,12.56
2022-10-14T15:50:28.605Z,12.47
2022-10-14T15:52:58.023Z,12.40
2022-10-14T15:55:29.625Z,12.44
2022-10-14T15:57:57.582Z,12.39
2022-10-14T16:00:25.975Z,12.39
2022-10-14T16:02:58.422Z,12.29
2022-10-14T16:05:28.947Z,12.27
2022-10-14T16:07:58.483Z,12.28
2022-10-14T16:10:29.371Z,12.26
2022-10-14T16:12:59.974Z,12.26
2022-10-14T16:15:33.281Z,12.24
2022-10-14T16:18:01.765Z,12.25
2022-10-14T16:20:30.711Z,12.22
2022-10-14T16:23:01.332Z,12.20
2022-10-14T16:25:35.364Z,12.16
2022-10-14T16:28:07.537Z,12.13
2022-10-14T16:30:39.011Z,12.08
2022-10-14T16:33:07.509Z,12.01
2022-10-14T16:35:35.518Z,12.05
2022-10-14T16:38:04.854Z,12.06
2022-10-14T16:40:36.634Z,12.04
2022-10-14T16:43:05.318Z,12.02
2022-10-14T16:45:33.437Z,12.02
2022-10-14T16:48:01.540Z,11.99
2022-10-14T16:50:29.619Z,11.98
2022-10-14T16:53:15.331Z,11.95
2022-10-14T16:55:44.649Z,11.90
2022-10-14T16:58:12.613Z,11.87
2022-10-14T17:00:40.586Z,11.89
2022-10-14T17:03:08.658Z,11.89
2022-10-14T17:05:36.869Z,11.88
2022-10-14T17:08:05.041Z,11.86
2022-10-14T17:10:33.015Z,11.88
2022-10-14T17:13:02.502Z,11.89
2022-10-14T17:15:30.522Z,11.92
2022-10-14T17:17:58.563Z,11.92
2022-10-14T17:20:27.420Z,11.95
2022-10-14T17:22:55.448Z,11.94
2022-10-14T17:25:23.430Z,11.95
2022-10-14T17:27:51.412Z,11.99
2022-10-14T17:30:20.860Z,11.98
2022-10-14T17:32:48.871Z,11.96
2022-10-14T17:35:16.956Z,11.93
2022-10-14T17:37:45.278Z,11.91
2022-10-14T17:40:13.708Z,11.93
2022-10-14T17:42:41.788Z,11.99
2022-10-14T17:45:11.037Z,11.94
2022-10-14T17:47:40.370Z,11.96
2022-10-14T17:50:10.885Z,11.95
2022-10-14T17:52:38.826Z,11.92
2022-10-14T17:55:07.703Z,11.92
2022-10-14T17:57:35.805Z,11.91
2022-10-14T18:00:04.258Z,11.93
2022-10-14T18:02:32.354Z,11.95
2022-10-14T18:05:01.945Z,11.95
2022-10-14T18:07:29.890Z,11.97
2022-10-14T18:09:57.850Z,11.98
2022-10-14T18:12:25.834Z,12.01
2022-10-14T18:14:54.050Z,12.02
2022-10-14T18:17:22.379Z,12.05
2022-10-14T18:19:52.335Z,12.03
2022-10-14T18:22:21.940Z,11.94
2022-10-14T18:24:49.955Z,11.91
2022-10-14T18:27:17.931Z,11.90
2022-10-14T18:29:45.915Z,11.88
2022-10-14T18:32:13.863Z,11.87
2022-10-14T18:34:41.916Z,11.87
2022-10-14T18:37:09.897Z,11.88
2022-10-14T18:39:39.286Z,11.89
2022-10-14T18:42:07.268Z,11.92
2022-10-14T18:44:35.260Z,11.96
2022-10-14T18:47:03.253Z,11.98
2022-10-14T18:49:31.302Z,12.04
2022-10-14T18:51:59.256Z,12.05
2022-10-14T18:54:28.139Z,12.06
2022-10-14T18:56:59.698Z,12.08
2022-10-14T18:59:29.216Z,12.11
2022-10-14T19:01:57.252Z,12.13
2022-10-14T19:04:27.994Z,12.14
2022-10-14T19:06:55.956Z,12.14
2022-10-14T19:09:28.955Z,12.14
2022-10-14T19:11:59.544Z,12.14
2022-10-14T19:14:28.691Z,12.15
2022-10-14T19:16:56.764Z,12.15
2022-10-14T19:19:25.258Z,12.16
2022-10-14T19:21:54.413Z,12.15
2022-10-14T19:24:22.817Z,12.16
2022-10-14T19:26:50.968Z,12.15
2022-10-14T19:29:20.348Z,12.15
2022-10-14T19:31:51.385Z,12.13
2022-10-14T19:34:19.318Z,12.14
2022-10-14T19:36:47.326Z,12.14
2022-10-14T19:39:16.806Z,12.13
2022-10-14T19:41:46.480Z,12.11
2022-10-14T19:44:16.395Z,12.11
2022-10-14T19:46:46.284Z,12.07
2022-10-14T19:49:15.671Z,12.06
2022-10-14T19:51:43.675Z,12.06
2022-10-14T19:54:12.946Z,12.05
2022-10-14T19:56:40.932Z,12.01
2022-10-14T19:59:09.705Z,12.01
2022-10-14T20:01:37.728Z,12.00
2022-10-14T20:04:07.527Z,11.99
2022-10-14T20:06:38.208Z,11.95
2022-10-14T20:09:06.987Z,11.93
2022-10-14T20:11:35.885Z,11.92
2022-10-14T20:14:04.102Z,11.92
2022-10-14T20:16:32.063Z,11.92
2022-10-14T20:19:00.100Z,11.93
2022-10-14T20:21:30.070Z,11.92
2022-10-14T20:23:59.045Z,11.91
2022-10-14T20:26:27.077Z,11.91
2022-10-14T20:28:55.351Z,11.92
2022-10-14T20:31:25.258Z,11.93
2022-10-14T20:33:53.268Z,11.94
2022-10-14T20:36:22.685Z,11.96
2022-10-14T20:38:52.542Z,11.90
2022-10-14T20:41:22.201Z,11.96
2022-10-14T20:43:50.697Z,11.97
2022-10-14T20:46:19.237Z,11.96
2022-10-14T20:48:47.403Z,11.96
2022-10-14T20:51:18.006Z,11.95
2022-10-14T20:53:46.190Z,11.92
2022-10-14T20:56:16.019Z,11.94
2022-10-14T20:58:44.237Z,11.92
2022-10-14T21:01:14.107Z,11.92
2022-10-14T21:03:43.555Z,11.91
2022-10-14T21:06:13.125Z,11.88
2022-10-14T21:08:41.413Z,11.84
2022-10-14T21:11:14.888Z,11.85
2022-10-14T21:13:46.540Z,11.84
2022-10-14T21:16:16.768Z,11.81
2022-10-14T21:18:49.123Z,11.79
2022-10-14T21:21:18.533Z,11.87
2022-10-14T21:23:46.557Z,11.83
2022-10-14T21:26:14.723Z,11.80
2022-10-14T21:28:43.445Z,11.82
2022-10-14T21:31:17.361Z,11.84
2022-10-14T21:33:47.483Z,11.82
2022-10-14T21:36:17.189Z,11.82
2022-10-14T21:38:45.217Z,11.81
2022-10-14T21:41:13.553Z,11.81
2022-10-14T21:43:41.626Z,11.80
2022-10-14T21:46:13.419Z,11.80
2022-10-14T21:48:42.766Z,11.81
2022-10-14T21:51:12.625Z,11.81
2022-10-14T21:53:42.220Z,11.80
2022-10-14T21:56:11.998Z,11.81
2022-10-14T21:58:40.335Z,11.82
2022-10-14T22:01:09.978Z,11.82
2022-10-14T22:03:40.300Z,11.82
2022-10-14T22:06:10.542Z,11.82
2022-10-14T22:08:40.751Z,11.82
2022-10-14T22:11:15.894Z,11.82
2022-10-14T22:13:43.899Z,11.79
2022-10-14T22:16:13.439Z,11.82
2022-10-14T22:18:44.789Z,11.80
2022-10-14T22:21:12.722Z,11.81
2022-10-14T22:23:40.672Z,11.80
2022-10-14T22:26:12.040Z,11.80
2022-10-14T22:28:40.765Z,11.81
2022-10-14T22:31:10.533Z,11.80
2022-10-14T22:33:39.510Z,11.80
2022-10-14T22:36:10.241Z,11.80
2022-10-14T22:38:38.677Z,11.81
2022-10-14T22:41:07.903Z,11.80
2022-10-14T22:43:36.848Z,11.79
2022-10-14T22:46:07.014Z,11.80
2022-10-14T22:48:35.961Z,11.78
2022-10-14T22:51:05.002Z,11.81
2022-10-14T22:53:34.994Z,11.80
2022-10-14T22:56:02.992Z,11.82
2022-10-14T22:58:31.003Z,11.84
2022-10-14T23:01:06.852Z,11.87
2022-10-14T23:03:35.404Z,11.88
2022-10-14T23:06:04.841Z,11.82
2022-10-14T23:08:35.102Z,11.88
2022-10-14T23:11:04.133Z,11.89
2022-10-14T23:13:32.939Z,11.82
2022-10-14T23:16:02.323Z,11.91
2022-10-14T23:18:33.059Z,11.91
2022-10-14T23:21:08.564Z,11.94
2022-10-14T23:23:37.972Z,11.93
2022-10-14T23:26:06.594Z,11.91
2022-10-14T23:28:34.605Z,11.91
2022-10-14T23:31:08.255Z,11.92
2022-10-14T23:33:36.198Z,11.92
2022-10-14T23:36:05.323Z,11.93
2022-10-14T23:38:34.067Z,11.94
2022-10-14T23:41:04.654Z,11.97
2022-10-14T23:43:32.728Z,11.96
2022-10-14T23:46:00.934Z,11.97
2022-10-14T23:48:29.643Z,11.99
2022-10-14T23:50:57.791Z,11.99
2022-10-14T23:53:26.886Z,12.06
2022-10-14T23:55:55.168Z,11.98
2022-10-14T23:58:25.301Z,12.03
